sensor_id;sensor_type;location;lat;lon;timestamp;P1;durP1;ratioP1;P2;durP2;ratioP2
73283;SDS011;61519;60.050;18.582;2022-07-18T00:02:07;4.90;;;0.52;;
73283;SDS011;61519;60.050;18.582;2022-07-18T00:04:33;1.25;;;0.50;;
73283;SDS011;61519;60.050;18.582;2022-07-18T00:06:59;2.83;;;1.10;;
73283;SDS011;61519;60.050;18.582;2022-07-18T00:09:24;1.27;;;0.40;;
73283;SDS011;61519;60.050;18.582;2022-07-18T00:11:50;1.77;;;0.77;;
73283;SDS011;61519;60.050;18.582;2022-07-18T00:14:17;1.40;;;0.50;;
73283;SDS011;61519;60.050;18.582;2022-07-18T00:16:43;1.85;;;0.70;;
73283;SDS011;61519;60.050;18.582;2022-07-18T00:19:08;1.33;;;0.53;;
73283;SDS011;61519;60.050;18.582;2022-07-18T00:21:34;2.37;;;0.40;;
73283;SDS011;61519;60.050;18.582;2022-07-18T00:23:59;1.90;;;0.82;;
73283;SDS011;61519;60.050;18.582;2022-07-18T00:26:25;2.87;;;0.70;;
73283;SDS011;61519;60.050;18.582;2022-07-18T00:28:51;1.30;;;0.40;;
73283;SDS011;61519;60.050;18.582;2022-07-18T00:31:16;2.10;;;0.50;;
73283;SDS011;61519;60.050;18.582;2022-07-18T00:33:42;1.20;;;0.40;;
73283;SDS011;61519;60.050;18.582;2022-07-18T00:36:07;1.77;;;0.40;;
73283;SDS011;61519;60.050;18.582;2022-07-18T00:38:33;1.30;;;0.40;;
73283;SDS011;61519;60.050;18.582;2022-07-18T00:40:58;1.60;;;0.43;;
73283;SDS011;61519;60.050;18.582;2022-07-18T00:43:24;3.25;;;0.50;;
73283;SDS011;61519;60.050;18.582;2022-07-18T00:45:49;1.77;;;0.40;;
73283;SDS011;61519;60.050;18.582;2022-07-18T00:48:15;1.88;;;0.93;;
73283;SDS011;61519;60.050;18.582;2022-07-18T00:50:42;1.20;;;0.50;;
73283;SDS011;61519;60.050;18.582;2022-07-18T00:53:09;1.45;;;0.47;;
73283;SDS011;61519;60.050;18.582;2022-07-18T00:55:37;1.45;;;0.40;;
73283;SDS011;61519;60.050;18.582;2022-07-18T00:58:03;1.67;;;0.70;;
73283;SDS011;61519;60.050;18.582;2022-07-18T01:00:29;1.63;;;0.60;;
73283;SDS011;61519;60.050;18.582;2022-07-18T01:03:13;1.50;;;0.60;;
73283;SDS011;61519;60.050;18.582;2022-07-18T01:05:39;1.67;;;0.40;;
73283;SDS011;61519;60.050;18.582;2022-07-18T01:08:04;2.57;;;0.70;;
73283;SDS011;61519;60.050;18.582;2022-07-18T01:10:30;1.42;;;0.43;;
73283;SDS011;61519;60.050;18.582;2022-07-18T01:12:55;3.30;;;0.70;;
73283;SDS011;61519;60.050;18.582;2022-07-18T01:15:20;1.50;;;0.40;;
73283;SDS011;61519;60.050;18.582;2022-07-18T01:17:46;1.40;;;0.50;;
73283;SDS011;61519;60.050;18.582;2022-07-18T01:20:12;2.38;;;0.77;;
73283;SDS011;61519;60.050;18.582;2022-07-18T01:22:37;1.93;;;0.73;;
73283;SDS011;61519;60.050;18.582;2022-07-18T01:25:05;1.50;;;0.40;;
73283;SDS011;61519;60.050;18.582;2022-07-18T01:27:31;1.30;;;0.40;;
73283;SDS011;61519;60.050;18.582;2022-07-18T01:29:57;1.20;;;0.40;;
73283;SDS011;61519;60.050;18.582;2022-07-18T01:32:22;5.63;;;0.53;;
73283;SDS011;61519;60.050;18.582;2022-07-18T01:34:48;2.00;;;0.60;;
73283;SDS011;61519;60.050;18.582;2022-07-18T01:37:14;1.50;;;0.40;;
73283;SDS011;61519;60.050;18.582;2022-07-18T01:39:40;1.40;;;0.40;;
73283;SDS011;61519;60.050;18.582;2022-07-18T01:42:08;1.50;;;0.52;;
73283;SDS011;61519;60.050;18.582;2022-07-18T01:44:34;1.10;;;0.40;;
73283;SDS011;61519;60.050;18.582;2022-07-18T01:47:01;2.83;;;0.70;;
73283;SDS011;61519;60.050;18.582;2022-07-18T01:49:27;3.63;;;0.50;;
73283;SDS011;61519;60.050;18.582;2022-07-18T01:51:55;1.25;;;0.40;;
73283;SDS011;61519;60.050;18.582;2022-07-18T01:54:25;1.85;;;0.63;;
73283;SDS011;61519;60.050;18.582;2022-07-18T01:56:52;1.83;;;0.60;;
73283;SDS011;61519;60.050;18.582;2022-07-18T01:59:18;1.30;;;0.40;;
73283;SDS011;61519;60.050;18.582;2022-07-18T02:01:43;1.93;;;0.70;;
73283;SDS011;61519;60.050;18.582;2022-07-18T02:04:09;4.60;;;0.52;;
73283;SDS011;61519;60.050;18.582;2022-07-18T02:06:34;1.50;;;0.50;;
73283;SDS011;61519;60.050;18.582;2022-07-18T02:09:00;1.55;;;0.43;;
73283;SDS011;61519;60.050;18.582;2022-07-18T02:11:25;1.83;;;0.82;;
73283;SDS011;61519;60.050;18.582;2022-07-18T02:13:51;1.67;;;0.60;;
73283;SDS011;61519;60.050;18.582;2022-07-18T02:16:17;1.60;;;0.40;;
73283;SDS011;61519;60.050;18.582;2022-07-18T02:18:42;3.40;;;0.50;;
73283;SDS011;61519;60.050;18.582;2022-07-18T02:21:08;2.17;;;0.50;;
73283;SDS011;61519;60.050;18.582;2022-07-18T02:23:34;1.67;;;0.60;;
73283;SDS011;61519;60.050;18.582;2022-07-18T02:26:00;1.30;;;0.50;;
73283;SDS011;61519;60.050;18.582;2022-07-18T02:28:25;2.17;;;0.50;;
73283;SDS011;61519;60.050;18.582;2022-07-18T02:30:51;1.40;;;0.40;;
73283;SDS011;61519;60.050;18.582;2022-07-18T02:33:16;1.73;;;0.67;;
73283;SDS011;61519;60.050;18.582;2022-07-18T02:35:42;2.58;;;0.52;;
73283;SDS011;61519;60.050;18.582;2022-07-18T02:38:08;3.05;;;0.57;;
73283;SDS011;61519;60.050;18.582;2022-07-18T02:40:34;1.10;;;0.40;;
73283;SDS011;61519;60.050;18.582;2022-07-18T02:43:00;1.30;;;0.40;;
73283;SDS011;61519;60.050;18.582;2022-07-18T02:45:25;1.27;;;0.57;;
73283;SDS011;61519;60.050;18.582;2022-07-18T02:47:51;2.30;;;0.60;;
73283;SDS011;61519;60.050;18.582;2022-07-18T02:50:17;1.73;;;0.67;;
73283;SDS011;61519;60.050;18.582;2022-07-18T02:52:42;1.55;;;0.52;;
73283;SDS011;61519;60.050;18.582;2022-07-18T02:55:09;1.40;;;0.67;;
73283;SDS011;61519;60.050;18.582;2022-07-18T02:57:35;1.70;;;0.60;;
73283;SDS011;61519;60.050;18.582;2022-07-18T03:00:02;1.77;;;0.80;;
73283;SDS011;61519;60.050;18.582;2022-07-18T03:02:33;1.50;;;0.50;;
73283;SDS011;61519;60.050;18.582;2022-07-18T03:04:59;2.30;;;0.50;;
73283;SDS011;61519;60.050;18.582;2022-07-18T03:07:25;2.30;;;0.53;;
73283;SDS011;61519;60.050;18.582;2022-07-18T03:09:50;1.87;;;0.53;;
73283;SDS011;61519;60.050;18.582;2022-07-18T03:12:16;2.08;;;0.95;;
73283;SDS011;61519;60.050;18.582;2022-07-18T03:14:42;1.83;;;0.63;;
73283;SDS011;61519;60.050;18.582;2022-07-18T03:17:07;1.75;;;0.60;;
73283;SDS011;61519;60.050;18.582;2022-07-18T03:19:33;1.60;;;0.63;;
73283;SDS011;61519;60.050;18.582;2022-07-18T03:21:59;1.63;;;0.50;;
73283;SDS011;61519;60.050;18.582;2022-07-18T03:24:25;1.77;;;0.50;;
73283;SDS011;61519;60.050;18.582;2022-07-18T03:26:50;1.70;;;0.60;;
73283;SDS011;61519;60.050;18.582;2022-07-18T03:29:15;2.63;;;0.70;;
73283;SDS011;61519;60.050;18.582;2022-07-18T03:31:41;1.63;;;0.50;;
73283;SDS011;61519;60.050;18.582;2022-07-18T03:34:07;1.93;;;0.60;;
73283;SDS011;61519;60.050;18.582;2022-07-18T03:36:32;3.20;;;0.68;;
73283;SDS011;61519;60.050;18.582;2022-07-18T03:38:58;1.93;;;0.50;;
73283;SDS011;61519;60.050;18.582;2022-07-18T03:41:23;1.50;;;0.60;;
73283;SDS011;61519;60.050;18.582;2022-07-18T03:43:49;3.15;;;0.60;;
73283;SDS011;61519;60.050;18.582;2022-07-18T03:46:14;1.50;;;0.60;;
73283;SDS011;61519;60.050;18.582;2022-07-18T03:48:40;1.60;;;0.50;;
73283;SDS011;61519;60.050;18.582;2022-07-18T03:51:05;4.60;;;0.90;;
73283;SDS011;61519;60.050;18.582;2022-07-18T03:53:31;2.28;;;0.60;;
73283;SDS011;61519;60.050;18.582;2022-07-18T03:55:56;2.53;;;0.77;;
73283;SDS011;61519;60.050;18.582;2022-07-18T03:58:22;3.50;;;0.50;;
73283;SDS011;61519;60.050;18.582;2022-07-18T04:00:47;2.58;;;0.88;;
73283;SDS011;61519;60.050;18.582;2022-07-18T04:03:13;3.10;;;0.50;;
73283;SDS011;61519;60.050;18.582;2022-07-18T04:05:39;1.60;;;0.60;;
73283;SDS011;61519;60.050;18.582;2022-07-18T04:08:05;2.13;;;0.70;;
73283;SDS011;61519;60.050;18.582;2022-07-18T04:10:30;3.47;;;0.73;;
73283;SDS011;61519;60.050;18.582;2022-07-18T04:12:56;2.40;;;0.63;;
73283;SDS011;61519;60.050;18.582;2022-07-18T04:15:22;2.50;;;0.63;;
73283;SDS011;61519;60.050;18.582;2022-07-18T04:17:49;4.47;;;0.60;;
73283;SDS011;61519;60.050;18.582;2022-07-18T04:20:15;2.45;;;0.50;;
73283;SDS011;61519;60.050;18.582;2022-07-18T04:25:13;1.85;;;0.90;;
73283;SDS011;61519;60.050;18.582;2022-07-18T04:27:39;2.33;;;0.60;;
73283;SDS011;61519;60.050;18.582;2022-07-18T04:30:05;1.77;;;0.60;;
73283;SDS011;61519;60.050;18.582;2022-07-18T04:32:31;1.92;;;0.60;;
73283;SDS011;61519;60.050;18.582;2022-07-18T04:34:56;2.20;;;0.87;;
73283;SDS011;61519;60.050;18.582;2022-07-18T04:37:22;3.75;;;1.13;;
73283;SDS011;61519;60.050;18.582;2022-07-18T04:39:47;1.77;;;0.80;;
73283;SDS011;61519;60.050;18.582;2022-07-18T04:42:13;2.57;;;0.60;;
73283;SDS011;61519;60.050;18.582;2022-07-18T04:44:38;1.70;;;0.60;;
73283;SDS011;61519;60.050;18.582;2022-07-18T04:47:04;2.10;;;0.70;;
73283;SDS011;61519;60.050;18.582;2022-07-18T04:49:29;2.00;;;0.90;;
73283;SDS011;61519;60.050;18.582;2022-07-18T04:51:55;1.47;;;0.50;;
73283;SDS011;61519;60.050;18.582;2022-07-18T04:54:20;2.30;;;0.80;;
73283;SDS011;61519;60.050;18.582;2022-07-18T04:56:45;1.83;;;0.60;;
73283;SDS011;61519;60.050;18.582;2022-07-18T04:59:11;1.98;;;0.70;;
73283;SDS011;61519;60.050;18.582;2022-07-18T05:01:37;2.53;;;0.70;;
73283;SDS011;61519;60.050;18.582;2022-07-18T05:04:02;2.63;;;0.93;;
73283;SDS011;61519;60.050;18.582;2022-07-18T05:06:28;3.17;;;0.88;;
73283;SDS011;61519;60.050;18.582;2022-07-18T05:08:54;3.88;;;1.30;;
73283;SDS011;61519;60.050;18.582;2022-07-18T05:11:19;2.00;;;0.63;;
73283;SDS011;61519;60.050;18.582;2022-07-18T05:13:44;2.00;;;0.60;;
73283;SDS011;61519;60.050;18.582;2022-07-18T05:16:10;3.20;;;0.70;;
73283;SDS011;61519;60.050;18.582;2022-07-18T05:18:35;2.63;;;0.80;;
73283;SDS011;61519;60.050;18.582;2022-07-18T05:21:01;2.92;;;0.70;;
73283;SDS011;61519;60.050;18.582;2022-07-18T05:23:26;3.40;;;0.70;;
73283;SDS011;61519;60.050;18.582;2022-07-18T05:25:53;2.30;;;0.85;;
73283;SDS011;61519;60.050;18.582;2022-07-18T05:28:19;2.10;;;0.67;;
73283;SDS011;61519;60.050;18.582;2022-07-18T05:30:44;2.23;;;0.70;;
73283;SDS011;61519;60.050;18.582;2022-07-18T05:33:10;3.80;;;1.00;;
73283;SDS011;61519;60.050;18.582;2022-07-18T05:35:35;2.00;;;0.80;;
73283;SDS011;61519;60.050;18.582;2022-07-18T05:38:01;1.80;;;0.70;;
73283;SDS011;61519;60.050;18.582;2022-07-18T05:40:26;2.47;;;0.80;;
73283;SDS011;61519;60.050;18.582;2022-07-18T05:42:52;2.07;;;0.90;;
73283;SDS011;61519;60.050;18.582;2022-07-18T05:45:18;2.15;;;0.95;;
73283;SDS011;61519;60.050;18.582;2022-07-18T05:47:43;2.27;;;1.03;;
73283;SDS011;61519;60.050;18.582;2022-07-18T05:50:09;2.20;;;0.90;;
73283;SDS011;61519;60.050;18.582;2022-07-18T05:52:35;3.40;;;0.90;;
73283;SDS011;61519;60.050;18.582;2022-07-18T05:55:01;2.67;;;0.70;;
73283;SDS011;61519;60.050;18.582;2022-07-18T05:57:27;4.13;;;0.88;;
73283;SDS011;61519;60.050;18.582;2022-07-18T05:59:53;4.40;;;1.20;;
73283;SDS011;61519;60.050;18.582;2022-07-18T06:02:18;2.30;;;1.08;;
73283;SDS011;61519;60.050;18.582;2022-07-18T06:04:44;2.30;;;1.00;;
73283;SDS011;61519;60.050;18.582;2022-07-18T06:07:10;2.42;;;1.17;;
73283;SDS011;61519;60.050;18.582;2022-07-18T06:09:35;2.30;;;0.80;;
73283;SDS011;61519;60.050;18.582;2022-07-18T06:12:02;3.45;;;1.42;;
73283;SDS011;61519;60.050;18.582;2022-07-18T06:14:29;2.83;;;1.83;;
73283;SDS011;61519;60.050;18.582;2022-07-18T06:16:55;2.95;;;1.55;;
73283;SDS011;61519;60.050;18.582;2022-07-18T06:19:21;2.47;;;1.55;;
73283;SDS011;61519;60.050;18.582;2022-07-18T06:21:47;3.83;;;1.83;;
73283;SDS011;61519;60.050;18.582;2022-07-18T06:24:12;3.83;;;1.77;;
73283;SDS011;61519;60.050;18.582;2022-07-18T06:26:38;3.10;;;1.67;;
73283;SDS011;61519;60.050;18.582;2022-07-18T06:29:03;3.20;;;1.47;;
73283;SDS011;61519;60.050;18.582;2022-07-18T06:31:29;3.10;;;1.45;;
73283;SDS011;61519;60.050;18.582;2022-07-18T06:33:54;2.42;;;1.40;;
73283;SDS011;61519;60.050;18.582;2022-07-18T06:36:19;2.93;;;2.23;;
73283;SDS011;61519;60.050;18.582;2022-07-18T06:38:48;2.80;;;1.83;;
73283;SDS011;61519;60.050;18.582;2022-07-18T06:41:17;3.03;;;2.17;;
73283;SDS011;61519;60.050;18.582;2022-07-18T06:43:43;4.65;;;2.33;;
73283;SDS011;61519;60.050;18.582;2022-07-18T06:46:09;2.92;;;1.50;;
73283;SDS011;61519;60.050;18.582;2022-07-18T06:48:35;2.40;;;1.30;;
73283;SDS011;61519;60.050;18.582;2022-07-18T06:51:01;3.55;;;1.38;;
73283;SDS011;61519;60.050;18.582;2022-07-18T06:53:27;2.78;;;1.30;;
73283;SDS011;61519;60.050;18.582;2022-07-18T06:55:54;2.67;;;1.40;;
73283;SDS011;61519;60.050;18.582;2022-07-18T06:58:20;3.30;;;2.08;;
73283;SDS011;61519;60.050;18.582;2022-07-18T07:00:45;2.90;;;1.70;;
73283;SDS011;61519;60.050;18.582;2022-07-18T07:03:11;3.10;;;2.15;;
73283;SDS011;61519;60.050;18.582;2022-07-18T07:05:36;3.53;;;2.53;;
73283;SDS011;61519;60.050;18.582;2022-07-18T07:08:02;3.63;;;2.93;;
73283;SDS011;61519;60.050;18.582;2022-07-18T07:10:27;5.43;;;3.10;;
73283;SDS011;61519;60.050;18.582;2022-07-18T07:12:53;3.83;;;3.13;;
73283;SDS011;61519;60.050;18.582;2022-07-18T07:15:19;4.83;;;2.63;;
73283;SDS011;61519;60.050;18.582;2022-07-18T07:17:46;3.35;;;2.47;;
73283;SDS011;61519;60.050;18.582;2022-07-18T07:20:12;4.47;;;2.83;;
73283;SDS011;61519;60.050;18.582;2022-07-18T07:22:44;3.40;;;2.10;;
73283;SDS011;61519;60.050;18.582;2022-07-18T07:25:10;4.20;;;2.92;;
73283;SDS011;61519;60.050;18.582;2022-07-18T07:27:36;3.10;;;2.10;;
73283;SDS011;61519;60.050;18.582;2022-07-18T07:30:01;3.17;;;2.23;;
73283;SDS011;61519;60.050;18.582;2022-07-18T07:32:27;3.03;;;2.15;;
73283;SDS011;61519;60.050;18.582;2022-07-18T07:34:53;3.27;;;2.53;;
73283;SDS011;61519;60.050;18.582;2022-07-18T07:37:18;5.43;;;2.30;;
73283;SDS011;61519;60.050;18.582;2022-07-18T07:39:44;3.00;;;2.23;;
73283;SDS011;61519;60.050;18.582;2022-07-18T07:42:09;2.73;;;1.70;;
73283;SDS011;61519;60.050;18.582;2022-07-18T07:44:34;3.13;;;1.70;;
73283;SDS011;61519;60.050;18.582;2022-07-18T07:47:00;2.90;;;1.92;;
73283;SDS011;61519;60.050;18.582;2022-07-18T07:49:25;3.05;;;2.10;;
73283;SDS011;61519;60.050;18.582;2022-07-18T07:51:51;4.07;;;1.97;;
73283;SDS011;61519;60.050;18.582;2022-07-18T07:54:16;3.63;;;1.83;;
73283;SDS011;61519;60.050;18.582;2022-07-18T07:56:42;3.45;;;1.25;;
73283;SDS011;61519;60.050;18.582;2022-07-18T07:59:07;2.50;;;1.30;;
73283;SDS011;61519;60.050;18.582;2022-07-18T08:01:33;2.50;;;1.40;;
73283;SDS011;61519;60.050;18.582;2022-07-18T08:03:58;4.97;;;2.00;;
73283;SDS011;61519;60.050;18.582;2022-07-18T08:06:24;3.10;;;1.67;;
73283;SDS011;61519;60.050;18.582;2022-07-18T08:08:49;4.17;;;1.60;;
73283;SDS011;61519;60.050;18.582;2022-07-18T08:11:15;3.80;;;1.03;;
73283;SDS011;61519;60.050;18.582;2022-07-18T08:13:40;2.80;;;1.42;;
73283;SDS011;61519;60.050;18.582;2022-07-18T08:16:06;3.10;;;1.20;;
73283;SDS011;61519;60.050;18.582;2022-07-18T08:18:31;2.80;;;1.27;;
73283;SDS011;61519;60.050;18.582;2022-07-18T08:20:57;5.47;;;1.73;;
73283;SDS011;61519;60.050;18.582;2022-07-18T08:23:22;2.83;;;1.40;;
73283;SDS011;61519;60.050;18.582;2022-07-18T08:25:47;2.95;;;1.83;;
73283;SDS011;61519;60.050;18.582;2022-07-18T08:28:13;3.00;;;1.60;;
73283;SDS011;61519;60.050;18.582;2022-07-18T08:30:39;5.03;;;1.50;;
73283;SDS011;61519;60.050;18.582;2022-07-18T08:33:06;3.23;;;1.40;;
73283;SDS011;61519;60.050;18.582;2022-07-18T08:35:32;4.35;;;1.85;;
73283;SDS011;61519;60.050;18.582;2022-07-18T08:37:58;3.08;;;1.63;;
73283;SDS011;61519;60.050;18.582;2022-07-18T08:40:24;4.32;;;1.73;;
73283;SDS011;61519;60.050;18.582;2022-07-18T08:42:50;2.73;;;1.23;;
73283;SDS011;61519;60.050;18.582;2022-07-18T08:45:19;2.58;;;1.10;;
73283;SDS011;61519;60.050;18.582;2022-07-18T08:47:47;2.45;;;1.20;;
73283;SDS011;61519;60.050;18.582;2022-07-18T08:50:12;3.30;;;1.63;;
73283;SDS011;61519;60.050;18.582;2022-07-18T08:52:38;2.42;;;1.13;;
73283;SDS011;61519;60.050;18.582;2022-07-18T08:55:05;3.83;;;1.67;;
73283;SDS011;61519;60.050;18.582;2022-07-18T08:57:32;2.83;;;1.60;;
73283;SDS011;61519;60.050;18.582;2022-07-18T08:59:57;3.28;;;1.38;;
73283;SDS011;61519;60.050;18.582;2022-07-18T09:02:24;3.77;;;1.50;;
73283;SDS011;61519;60.050;18.582;2022-07-18T09:04:52;2.38;;;1.20;;
73283;SDS011;61519;60.050;18.582;2022-07-18T09:07:28;2.27;;;1.07;;
73283;SDS011;61519;60.050;18.582;2022-07-18T09:09:56;3.38;;;1.50;;
73283;SDS011;61519;60.050;18.582;2022-07-18T09:12:24;2.78;;;1.33;;
73283;SDS011;61519;60.050;18.582;2022-07-18T09:14:50;3.80;;;1.70;;
73283;SDS011;61519;60.050;18.582;2022-07-18T09:17:18;3.47;;;1.03;;
73283;SDS011;61519;60.050;18.582;2022-07-18T09:22:30;4.10;;;1.20;;
73283;SDS011;61519;60.050;18.582;2022-07-18T09:24:58;3.00;;;1.33;;
73283;SDS011;61519;60.050;18.582;2022-07-18T09:27:39;2.85;;;1.00;;
73283;SDS011;61519;60.050;18.582;2022-07-18T09:30:13;2.87;;;1.30;;
73283;SDS011;61519;60.050;18.582;2022-07-18T09:32:54;2.17;;;1.10;;
73283;SDS011;61519;60.050;18.582;2022-07-18T09:35:33;3.30;;;1.83;;
73283;SDS011;61519;60.050;18.582;2022-07-18T09:38:04;2.50;;;0.90;;
73283;SDS011;61519;60.050;18.582;2022-07-18T09:40:37;2.60;;;1.00;;
73283;SDS011;61519;60.050;18.582;2022-07-18T09:43:08;3.33;;;1.43;;
73283;SDS011;61519;60.050;18.582;2022-07-18T09:45:38;2.00;;;0.90;;
73283;SDS011;61519;60.050;18.582;2022-07-18T09:48:05;2.33;;;1.00;;
73283;SDS011;61519;60.050;18.582;2022-07-18T09:50:34;2.85;;;1.13;;
73283;SDS011;61519;60.050;18.582;2022-07-18T09:53:07;2.38;;;1.08;;
73283;SDS011;61519;60.050;18.582;2022-07-18T09:55:48;2.30;;;0.80;;
73283;SDS011;61519;60.050;18.582;2022-07-18T09:58:24;2.90;;;1.02;;
73283;SDS011;61519;60.050;18.582;2022-07-18T10:00:53;1.92;;;0.80;;
73283;SDS011;61519;60.050;18.582;2022-07-18T10:03:20;2.72;;;1.17;;
73283;SDS011;61519;60.050;18.582;2022-07-18T10:05:46;2.72;;;1.02;;
73283;SDS011;61519;60.050;18.582;2022-07-18T10:08:14;3.10;;;1.00;;
73283;SDS011;61519;60.050;18.582;2022-07-18T10:10:41;3.53;;;0.90;;
73283;SDS011;61519;60.050;18.582;2022-07-18T10:13:08;2.38;;;1.17;;
73283;SDS011;61519;60.050;18.582;2022-07-18T10:15:35;2.40;;;0.88;;
73283;SDS011;61519;60.050;18.582;2022-07-18T10:18:03;2.85;;;1.08;;
73283;SDS011;61519;60.050;18.582;2022-07-18T10:20:35;3.77;;;1.17;;
73283;SDS011;61519;60.050;18.582;2022-07-18T10:23:06;2.63;;;1.00;;
73283;SDS011;61519;60.050;18.582;2022-07-18T10:25:34;3.53;;;0.90;;
73283;SDS011;61519;60.050;18.582;2022-07-18T10:28:03;3.22;;;1.00;;
73283;SDS011;61519;60.050;18.582;2022-07-18T10:30:31;2.20;;;0.90;;
73283;SDS011;61519;60.050;18.582;2022-07-18T10:33:04;2.43;;;1.00;;
73283;SDS011;61519;60.050;18.582;2022-07-18T10:36:15;2.15;;;0.88;;
73283;SDS011;61519;60.050;18.582;2022-07-18T10:41:33;3.30;;;1.00;;
73283;SDS011;61519;60.050;18.582;2022-07-18T10:57:31;2.85;;;1.20;;
73283;SDS011;61519;60.050;18.582;2022-07-18T11:15:54;3.00;;;1.08;;
73283;SDS011;61519;60.050;18.582;2022-07-18T11:18:20;2.10;;;0.80;;
73283;SDS011;61519;60.050;18.582;2022-07-18T11:20:46;2.60;;;0.80;;
73283;SDS011;61519;60.050;18.582;2022-07-18T11:25:43;3.05;;;1.00;;
73283;SDS011;61519;60.050;18.582;2022-07-18T11:28:09;3.13;;;1.00;;
73283;SDS011;61519;60.050;18.582;2022-07-18T11:30:36;1.90;;;0.68;;
73283;SDS011;61519;60.050;18.582;2022-07-18T11:33:02;3.93;;;0.80;;
73283;SDS011;61519;60.050;18.582;2022-07-18T11:35:27;2.95;;;0.85;;
73283;SDS011;61519;60.050;18.582;2022-07-18T11:37:54;2.38;;;1.05;;
73283;SDS011;61519;60.050;18.582;2022-07-18T11:40:20;2.37;;;1.10;;
73283;SDS011;61519;60.050;18.582;2022-07-18T11:42:46;3.45;;;1.10;;
73283;SDS011;61519;60.050;18.582;2022-07-18T11:45:13;3.22;;;1.65;;
73283;SDS011;61519;60.050;18.582;2022-07-18T11:47:50;2.10;;;0.90;;
73283;SDS011;61519;60.050;18.582;2022-07-18T11:50:17;4.47;;;1.38;;
73283;SDS011;61519;60.050;18.582;2022-07-18T11:52:44;2.53;;;0.90;;
73283;SDS011;61519;60.050;18.582;2022-07-18T11:55:13;3.25;;;1.80;;
73283;SDS011;61519;60.050;18.582;2022-07-18T11:57:39;3.88;;;1.92;;
73283;SDS011;61519;60.050;18.582;2022-07-18T12:00:18;2.63;;;1.20;;
73283;SDS011;61519;60.050;18.582;2022-07-18T12:02:44;2.95;;;1.88;;
73283;SDS011;61519;60.050;18.582;2022-07-18T12:05:10;6.18;;;1.75;;
73283;SDS011;61519;60.050;18.582;2022-07-18T12:07:35;2.80;;;1.40;;
73283;SDS011;61519;60.050;18.582;2022-07-18T12:10:14;5.53;;;1.23;;
73283;SDS011;61519;60.050;18.582;2022-07-18T12:12:41;3.20;;;1.48;;
73283;SDS011;61519;60.050;18.582;2022-07-18T12:15:06;2.05;;;0.70;;
73283;SDS011;61519;60.050;18.582;2022-07-18T12:17:41;2.50;;;1.27;;
73283;SDS011;61519;60.050;18.582;2022-07-18T12:20:09;2.93;;;1.33;;
73283;SDS011;61519;60.050;18.582;2022-07-18T12:28:21;2.20;;;0.73;;
73283;SDS011;61519;60.050;18.582;2022-07-18T12:30:47;2.70;;;1.60;;
73283;SDS011;61519;60.050;18.582;2022-07-18T12:33:12;2.72;;;0.95;;
73283;SDS011;61519;60.050;18.582;2022-07-18T12:35:38;3.53;;;1.47;;
73283;SDS011;61519;60.050;18.582;2022-07-18T12:40:38;3.10;;;1.52;;
73283;SDS011;61519;60.050;18.582;2022-07-18T12:43:30;2.40;;;1.02;;
73283;SDS011;61519;60.050;18.582;2022-07-18T12:46:05;3.13;;;1.48;;
73283;SDS011;61519;60.050;18.582;2022-07-18T12:48:33;3.35;;;1.50;;
73283;SDS011;61519;60.050;18.582;2022-07-18T12:53:25;3.42;;;1.58;;
73283;SDS011;61519;60.050;18.582;2022-07-18T12:55:52;2.53;;;0.85;;
73283;SDS011;61519;60.050;18.582;2022-07-18T12:58:17;2.83;;;1.23;;
73283;SDS011;61519;60.050;18.582;2022-07-18T13:00:43;4.33;;;1.40;;
73283;SDS011;61519;60.050;18.582;2022-07-18T13:03:10;6.20;;;1.25;;
73283;SDS011;61519;60.050;18.582;2022-07-18T13:05:36;4.27;;;1.47;;
73283;SDS011;61519;60.050;18.582;2022-07-18T13:08:01;3.60;;;1.60;;
73283;SDS011;61519;60.050;18.582;2022-07-18T13:10:27;2.90;;;1.53;;
73283;SDS011;61519;60.050;18.582;2022-07-18T13:12:52;3.53;;;1.70;;
73283;SDS011;61519;60.050;18.582;2022-07-18T13:15:18;4.00;;;1.60;;
73283;SDS011;61519;60.050;18.582;2022-07-18T13:17:45;3.15;;;1.42;;
73283;SDS011;61519;60.050;18.582;2022-07-18T13:20:12;4.88;;;1.48;;
73283;SDS011;61519;60.050;18.582;2022-07-18T13:22:38;4.17;;;1.63;;
73283;SDS011;61519;60.050;18.582;2022-07-18T13:25:04;3.47;;;1.20;;
73283;SDS011;61519;60.050;18.582;2022-07-18T13:27:31;4.43;;;1.60;;
73283;SDS011;61519;60.050;18.582;2022-07-18T13:29:56;3.95;;;1.20;;
73283;SDS011;61519;60.050;18.582;2022-07-18T13:32:22;4.80;;;2.03;;
73283;SDS011;61519;60.050;18.582;2022-07-18T13:34:47;4.10;;;2.23;;
73283;SDS011;61519;60.050;18.582;2022-07-18T13:37:13;5.03;;;1.53;;
73283;SDS011;61519;60.050;18.582;2022-07-18T13:39:38;5.55;;;1.40;;
73283;SDS011;61519;60.050;18.582;2022-07-18T13:42:04;3.70;;;1.33;;
73283;SDS011;61519;60.050;18.582;2022-07-18T13:44:30;6.07;;;1.55;;
73283;SDS011;61519;60.050;18.582;2022-07-18T13:46:56;4.63;;;2.50;;
73283;SDS011;61519;60.050;18.582;2022-07-18T13:49:22;3.85;;;1.80;;
73283;SDS011;61519;60.050;18.582;2022-07-18T13:51:47;3.70;;;2.20;;
73283;SDS011;61519;60.050;18.582;2022-07-18T13:54:13;3.87;;;1.10;;
73283;SDS011;61519;60.050;18.582;2022-07-18T13:56:42;4.40;;;1.88;;
73283;SDS011;61519;60.050;18.582;2022-07-18T13:59:08;4.28;;;2.00;;
73283;SDS011;61519;60.050;18.582;2022-07-18T14:01:34;3.90;;;1.80;;
73283;SDS011;61519;60.050;18.582;2022-07-18T14:03:59;3.63;;;1.63;;
73283;SDS011;61519;60.050;18.582;2022-07-18T14:06:24;5.97;;;2.10;;
73283;SDS011;61519;60.050;18.582;2022-07-18T14:08:50;4.93;;;1.70;;
73283;SDS011;61519;60.050;18.582;2022-07-18T14:11:15;3.93;;;1.43;;
73283;SDS011;61519;60.050;18.582;2022-07-18T14:13:41;4.43;;;1.88;;
73283;SDS011;61519;60.050;18.582;2022-07-18T14:16:07;3.37;;;1.20;;
73283;SDS011;61519;60.050;18.582;2022-07-18T14:18:32;4.00;;;1.37;;
73283;SDS011;61519;60.050;18.582;2022-07-18T14:20:57;3.47;;;1.43;;
73283;SDS011;61519;60.050;18.582;2022-07-18T14:23:23;4.32;;;1.42;;
73283;SDS011;61519;60.050;18.582;2022-07-18T14:25:48;3.43;;;1.10;;
73283;SDS011;61519;60.050;18.582;2022-07-18T14:28:14;3.47;;;1.17;;
73283;SDS011;61519;60.050;18.582;2022-07-18T14:30:39;4.20;;;1.50;;
73283;SDS011;61519;60.050;18.582;2022-07-18T14:33:05;6.38;;;1.65;;
73283;SDS011;61519;60.050;18.582;2022-07-18T14:35:30;3.67;;;1.50;;
73283;SDS011;61519;60.050;18.582;2022-07-18T14:37:56;4.67;;;1.77;;
73283;SDS011;61519;60.050;18.582;2022-07-18T14:40:21;3.70;;;1.48;;
73283;SDS011;61519;60.050;18.582;2022-07-18T14:42:48;4.93;;;1.63;;
73283;SDS011;61519;60.050;18.582;2022-07-18T14:45:13;4.03;;;1.35;;
73283;SDS011;61519;60.050;18.582;2022-07-18T14:47:39;6.10;;;1.73;;
73283;SDS011;61519;60.050;18.582;2022-07-18T14:50:05;3.77;;;1.50;;
73283;SDS011;61519;60.050;18.582;2022-07-18T14:52:31;3.72;;;1.30;;
73283;SDS011;61519;60.050;18.582;2022-07-18T14:54:57;3.20;;;1.33;;
73283;SDS011;61519;60.050;18.582;2022-07-18T14:57:22;4.80;;;1.57;;
73283;SDS011;61519;60.050;18.582;2022-07-18T14:59:48;4.72;;;1.63;;
73283;SDS011;61519;60.050;18.582;2022-07-18T15:02:13;4.30;;;1.43;;
73283;SDS011;61519;60.050;18.582;2022-07-18T15:04:39;5.85;;;1.48;;
73283;SDS011;61519;60.050;18.582;2022-07-18T15:07:05;3.97;;;1.57;;
73283;SDS011;61519;60.050;18.582;2022-07-18T15:09:31;3.55;;;1.60;;
73283;SDS011;61519;60.050;18.582;2022-07-18T15:11:56;3.65;;;1.58;;
73283;SDS011;61519;60.050;18.582;2022-07-18T15:14:22;3.53;;;1.60;;
73283;SDS011;61519;60.050;18.582;2022-07-18T15:16:47;3.90;;;2.10;;
73283;SDS011;61519;60.050;18.582;2022-07-18T15:19:13;6.75;;;1.65;;
73283;SDS011;61519;60.050;18.582;2022-07-18T15:21:38;4.13;;;1.37;;